Barhom II — 5IM534 — position and weather

sailwx.info

Track history (hours):
 
Tides and Currents Weather Stations Pressure Air Temp Water Temp Dewpoint Dewpoint Depression Visibility Wind Speed Wind Dir Waves Ship Positions

Barhom II

Last reported at 2014-Nov-28 12:30 UTC. Time now 2014-Nov-28 13:30 UTC.
Position N 43°24' E 003°42'.

Length 83 m; draft 4.7 m.

Type: Cargo ship. MMSI: 677043400.

Date/timePositionNaut miles runAvg speedWind from/ knotsBaromVisibWave heightAir tempDewpointWater temp
2014-Nov-28 12:30N 43°24' E 003°42'0 0.1
2014-Nov-28 11:28N 43°24' E 003°42'0 0.0
2014-Nov-28 10:21N 43°24' E 003°42'0 0.0
2014-Nov-28 09:29N 43°24' E 003°42'0 0.0
2014-Nov-28 07:17N 43°24' E 003°42'0 0.0
2014-Nov-27 18:29N 43°24' E 003°42'0 0.0
2014-Nov-27 17:29N 43°24' E 003°42'0 0.0
2014-Nov-27 16:14N 43°24' E 003°42'0 0.0
2014-Nov-26 17:13N 43°24' E 003°42'0 0.0
2014-Nov-26 16:24N 43°24' E 003°42'0 0.0
2014-Nov-26 15:30N 43°24' E 003°42'0 0.0
2014-Nov-26 14:26N 43°24' E 003°42'0 0.1
2014-Nov-26 11:18N 43°24' E 003°42'0 0.0
2014-Nov-26 10:33N 43°24' E 003°42'0 0.1
2014-Nov-26 09:16N 43°24' E 003°42'0 0.0
2014-Nov-26 08:31N 43°24' E 003°42'0 0.0
2014-Nov-26 03:21N 43°24' E 003°42'0 0.0
2014-Nov-26 02:23N 43°24' E 003°42'0 0.0
2014-Nov-26 01:33N 43°24' E 003°42'0 0.0
2014-Nov-26 00:15N 43°24' E 003°42'0 0.0
2014-Nov-25 23:32N 43°24' E 003°42'0 0.0
2014-Nov-25 22:26N 43°24' E 003°42'0 0.0
2014-Nov-25 21:31N 43°24' E 003°42'0 0.0
2014-Nov-25 20:31N 43°24' E 003°42'0 0.0
2014-Nov-25 13:30N 43°24' E 003°42'0 0.0
2014-Nov-25 11:12N 43°24' E 003°42'0 0.0
2014-Nov-25 09:14N 43°24' E 003°42'0 0.0
2014-Nov-24 18:25N 43°24' E 003°42'0 0.0
2014-Nov-24 14:05N 43°24' E 003°42'0 0.0
2014-Nov-24 08:13N 43°24' E 003°42'0 0.0
2014-Nov-24 01:29N 43°24' E 003°42'0 0.0
2014-Nov-23 16:24N 43°24' E 003°42'0 0.0
2014-Nov-23 10:25N 43°24' E 003°42'6 4.4
2014-Nov-23 09:07N 43°18' E 003°43'7 9.5
2014-Nov-23 08:26N 43°12' E 003°43'1010.1
2014-Nov-23 07:25N 43°02' E 003°42'59 9.5
2014-Nov-23 01:11N 42°03' E 003°34'7 2.6
2014-Nov-22 22:25N 41°56' E 003°36'2 1.4
2014-Nov-22 21:13N 41°57' E 003°37'3 1.3
2014-Nov-22 19:14N 41°59' E 003°40'1 1.4
2014-Nov-22 18:29N 41°59' E 003°41'1 1.4
2014-Nov-22 17:30N 42°00' E 003°42'1 1.5
2014-Nov-22 16:33N 42°01' E 003°44'1 1.3
2014-Nov-22 15:30N 42°01' E 003°46'5 4.9
2014-Nov-22 14:22N 42°05' E 003°40'12 9.7
2014-Nov-22 13:06N 42°16' E 003°33'9 5.9
2014-Nov-22 11:33N 42°25' E 003°30'1410.0
2014-Nov-22 10:10N 42°11' E 003°27'37 9.6
2014-Nov-22 06:20N 41°38' E 003°06'39 9.8
2014-Nov-22 02:20N 41°11' E 002°28'8 9.5
2014-Nov-22 01:33N 41°04' E 002°23'1010.1
2014-Nov-22 00:33N 40°55' E 002°17'1010.5
2014-Nov-21 23:33N 40°46' E 002°11'1110.5
2014-Nov-21 22:33N 40°37' E 002°04'1110.5
2014-Nov-21 21:33N 40°28' E 001°57'1110.6
2014-Nov-21 20:33N 40°18' E 001°51'1110.6
2014-Nov-21 19:33N 40°10' E 001°43'1110.9
2014-Nov-21 18:33N 40°00' E 001°36'1110.7
2014-Nov-21 17:33N 39°51' E 001°29'188 9.4
2014-Nov-20 21:31N 37°01' W 000°14'28 9.3
2014-Nov-20 18:31N 36°34' W 000°18'12 9.6
2014-Nov-20 17:13N 36°22' W 000°20'  
Track history (hours):
 
Tides and Currents Weather Stations Pressure Air Temp Water Temp Dewpoint Dewpoint Depression Visibility Wind Speed Wind Dir Waves Ship Positions

Barhom II

Last reported at 2014-Nov-28 12:30 UTC. Time now 2014-Nov-28 13:30 UTC.
Position N 43°24' E 003°42'.

Length 83 m; draft 4.7 m.

Type: Cargo ship. MMSI: 677043400.

Date/timePositionNaut miles runAvg speedWind from/ knotsBaromVisibWave heightAir tempDewpointWater temp
2014-Nov-28 12:30N 43°24' E 003°42'0 0.1
2014-Nov-28 11:28N 43°24' E 003°42'0 0.0
2014-Nov-28 10:21N 43°24' E 003°42'0 0.0
2014-Nov-28 09:29N 43°24' E 003°42'0 0.0
2014-Nov-28 07:17N 43°24' E 003°42'0 0.0
2014-Nov-27 18:29N 43°24' E 003°42'0 0.0
2014-Nov-27 17:29N 43°24' E 003°42'0 0.0
2014-Nov-27 16:14N 43°24' E 003°42'0 0.0
2014-Nov-26 17:13N 43°24' E 003°42'0 0.0
2014-Nov-26 16:24N 43°24' E 003°42'0 0.0
2014-Nov-26 15:30N 43°24' E 003°42'0 0.0
2014-Nov-26 14:26N 43°24' E 003°42'0 0.1
2014-Nov-26 11:18N 43°24' E 003°42'0 0.0
2014-Nov-26 10:33N 43°24' E 003°42'0 0.1
2014-Nov-26 09:16N 43°24' E 003°42'0 0.0
2014-Nov-26 08:31N 43°24' E 003°42'0 0.0
2014-Nov-26 03:21N 43°24' E 003°42'0 0.0
2014-Nov-26 02:23N 43°24' E 003°42'0 0.0
2014-Nov-26 01:33N 43°24' E 003°42'0 0.0
2014-Nov-26 00:15N 43°24' E 003°42'0 0.0
2014-Nov-25 23:32N 43°24' E 003°42'0 0.0
2014-Nov-25 22:26N 43°24' E 003°42'0 0.0
2014-Nov-25 21:31N 43°24' E 003°42'0 0.0
2014-Nov-25 20:31N 43°24' E 003°42'0 0.0
2014-Nov-25 13:30N 43°24' E 003°42'0 0.0
2014-Nov-25 11:12N 43°24' E 003°42'0 0.0
2014-Nov-25 09:14N 43°24' E 003°42'0 0.0
2014-Nov-24 18:25N 43°24' E 003°42'0 0.0
2014-Nov-24 14:05N 43°24' E 003°42'0 0.0
2014-Nov-24 08:13N 43°24' E 003°42'0 0.0
2014-Nov-24 01:29N 43°24' E 003°42'0 0.0
2014-Nov-23 16:24N 43°24' E 003°42'0 0.0
2014-Nov-23 10:25N 43°24' E 003°42'6 4.4
2014-Nov-23 09:07N 43°18' E 003°43'7 9.5
2014-Nov-23 08:26N 43°12' E 003°43'1010.1
2014-Nov-23 07:25N 43°02' E 003°42'59 9.5
2014-Nov-23 01:11N 42°03' E 003°34'7 2.6
2014-Nov-22 22:25N 41°56' E 003°36'2 1.4
2014-Nov-22 21:13N 41°57' E 003°37'3 1.3
2014-Nov-22 19:14N 41°59' E 003°40'1 1.4
2014-Nov-22 18:29N 41°59' E 003°41'1 1.4
2014-Nov-22 17:30N 42°00' E 003°42'1 1.5
2014-Nov-22 16:33N 42°01' E 003°44'1 1.3
2014-Nov-22 15:30N 42°01' E 003°46'5 4.9
2014-Nov-22 14:22N 42°05' E 003°40'12 9.7
2014-Nov-22 13:06N 42°16' E 003°33'9 5.9
2014-Nov-22 11:33N 42°25' E 003°30'1410.0
2014-Nov-22 10:10N 42°11' E 003°27'37 9.6
2014-Nov-22 06:20N 41°38' E 003°06'39 9.8
2014-Nov-22 02:20N 41°11' E 002°28'8 9.5
2014-Nov-22 01:33N 41°04' E 002°23'1010.1
2014-Nov-22 00:33N 40°55' E 002°17'1010.5
2014-Nov-21 23:33N 40°46' E 002°11'1110.5
2014-Nov-21 22:33N 40°37' E 002°04'1110.5
2014-Nov-21 21:33N 40°28' E 001°57'1110.6
2014-Nov-21 20:33N 40°18' E 001°51'1110.6
2014-Nov-21 19:33N 40°10' E 001°43'1110.9
2014-Nov-21 18:33N 40°00' E 001°36'1110.7
2014-Nov-21 17:33N 39°51' E 001°29'188 9.4
2014-Nov-20 21:31N 37°01' W 000°14'28 9.3
2014-Nov-20 18:31N 36°34' W 000°18'12 9.6
2014-Nov-20 17:13N 36°22' W 000°20'  

Dump ship's entire track history